createdAt,value
2023-04-18T00:00:48.747Z,27.20
2023-04-18T00:03:16.900Z,25.75
2023-04-18T00:05:47.918Z,25.90
2023-04-18T00:08:17.396Z,25.35
2023-04-18T00:10:45.655Z,25.73
2023-04-18T00:13:13.668Z,27.50
2023-04-18T00:15:43.814Z,27.35
2023-04-18T00:18:12.457Z,25.65
2023-04-18T00:20:40.448Z,27.17
2023-04-18T00:23:08.452Z,27.63
2023-04-18T00:25:37.802Z,26.13
2023-04-18T00:28:05.934Z,26.73
2023-04-18T00:30:33.995Z,27.85
2023-04-18T00:33:02.376Z,26.95
2023-04-18T00:35:31.937Z,28.35
2023-04-18T00:38:00.036Z,27.08
2023-04-18T00:40:27.989Z,28.88
2023-04-18T00:42:57.397Z,27.17
2023-04-18T00:45:25.377Z,27.13
2023-04-18T00:47:53.414Z,26.60
2023-04-18T00:50:21.549Z,27.58
2023-04-18T00:52:49.628Z,27.42
2023-04-18T00:55:18.233Z,27.48
2023-04-18T00:57:46.219Z,27.80
2023-04-18T01:00:16.433Z,27.88
2023-04-18T01:02:44.554Z,27.25
2023-04-18T01:05:12.604Z,27.90
2023-04-18T01:07:41.840Z,25.40
2023-04-18T01:10:11.198Z,25.55
2023-04-18T01:12:39.201Z,24.63
2023-04-18T01:15:08.370Z,23.17
2023-04-18T01:17:38.483Z,23.10
2023-04-18T01:20:07.868Z,22.73
2023-04-18T01:22:35.889Z,22.10
2023-04-18T01:25:10.255Z,21.60
2023-04-18T01:27:38.238Z,21.60
2023-04-18T01:30:07.268Z,21.52
2023-04-18T01:32:35.417Z,19.80
2023-04-18T01:35:03.795Z,19.40
2023-04-18T01:37:33.068Z,18.30
2023-04-18T01:40:01.093Z,18.00
2023-04-18T01:42:31.379Z,17.70
2023-04-18T01:44:59.344Z,17.23
2023-04-18T01:47:27.307Z,15.55
2023-04-18T01:49:55.466Z,15.55
2023-04-18T01:52:23.453Z,14.90
2023-04-18T01:54:51.670Z,14.18
2023-04-18T01:57:19.626Z,13.32
2023-04-18T01:59:48.921Z,13.57
2023-04-18T02:02:16.946Z,14.73
2023-04-18T02:04:46.375Z,12.18
2023-04-18T02:07:14.347Z,11.82
2023-04-18T02:09:42.304Z,12.02
2023-04-18T02:12:10.552Z,11.35
2023-04-18T02:14:38.535Z,12.35
2023-04-18T02:17:08.014Z,11.60
2023-04-18T02:19:36.010Z,11.90
2023-04-18T02:22:04.200Z,11.00
2023-04-18T02:24:32.135Z,10.77
2023-04-18T02:27:00.172Z,10.88
2023-04-18T02:29:28.190Z,10.93
2023-04-18T02:31:56.355Z,11.82
2023-04-18T02:34:25.826Z,10.32
2023-04-18T02:36:53.839Z,10.45
2023-04-18T02:39:22.297Z,9.80
2023-04-18T02:41:50.318Z,10.60
2023-04-18T02:44:18.320Z,9.75
2023-04-18T02:46:46.305Z,9.57
2023-04-18T02:49:14.302Z,9.27
2023-04-18T02:51:43.596Z,9.52
2023-04-18T02:54:11.719Z,9.23
2023-04-18T02:56:40.211Z,9.57
2023-04-18T02:59:08.534Z,9.40
2023-04-18T03:01:36.596Z,10.32
2023-04-18T03:04:04.609Z,9.30
2023-04-18T03:06:32.770Z,9.30
2023-04-18T03:09:02.080Z,9.77
2023-04-18T03:11:30.049Z,9.68
2023-04-18T03:13:58.054Z,9.05
2023-04-18T03:16:26.045Z,10.23
2023-04-18T03:18:54.086Z,9.40
2023-04-18T03:21:22.026Z,9.88
2023-04-18T03:23:50.121Z,10.40
2023-04-18T03:26:19.605Z,9.52
2023-04-18T03:28:47.607Z,10.48
2023-04-18T03:31:15.656Z,9.85
2023-04-18T03:33:45.589Z,10.23
2023-04-18T03:36:15.133Z,10.38
2023-04-18T03:38:43.088Z,9.70
2023-04-18T03:41:11.023Z,10.18
2023-04-18T03:43:40.400Z,10.88
2023-04-18T03:46:08.435Z,9.73
2023-04-18T03:48:37.463Z,10.35
2023-04-18T03:51:07.404Z,10.45
2023-04-18T03:53:35.703Z,10.75
2023-04-18T03:56:03.754Z,10.15
2023-04-18T03:58:31.667Z,10.63
2023-04-18T04:01:01.585Z,11.18
2023-04-18T04:03:30.036Z,10.30
2023-04-18T04:05:58.289Z,10.80
2023-04-18T04:08:28.102Z,11.00
2023-04-18T04:10:56.251Z,11.38
2023-04-18T04:13:24.224Z,10.77
2023-04-18T04:15:52.814Z,10.27
2023-04-18T04:18:25.384Z,10.25
2023-04-18T04:20:53.377Z,10.70
2023-04-18T04:23:22.716Z,10.95
2023-04-18T04:25:50.741Z,10.82
2023-04-18T04:28:18.744Z,10.90
2023-04-18T04:30:46.709Z,11.25
2023-04-18T04:33:14.648Z,12.10
2023-04-18T04:35:44.738Z,10.82
2023-04-18T04:38:13.047Z,10.77
2023-04-18T04:40:40.986Z,11.23
2023-04-18T04:43:12.816Z,11.27
2023-04-18T04:45:41.462Z,10.90
2023-04-18T04:48:09.658Z,11.18
2023-04-18T04:50:39.093Z,11.27
2023-04-18T04:53:08.814Z,10.90
2023-04-18T04:55:38.555Z,11.55
2023-04-18T04:58:06.499Z,10.82
2023-04-18T05:00:34.416Z,11.57
2023-04-18T05:03:02.646Z,11.60
2023-04-18T05:05:31.516Z,10.70
2023-04-18T05:07:59.505Z,11.27
2023-04-18T05:10:28.905Z,11.23
2023-04-18T05:12:56.960Z,10.90
2023-04-18T05:15:25.301Z,11.55
2023-04-18T05:17:53.290Z,11.52
2023-04-18T05:20:21.298Z,11.30
2023-04-18T05:22:49.184Z,11.52
2023-04-18T05:25:17.235Z,11.38
2023-04-18T05:27:47.170Z,12.40
2023-04-18T05:30:15.532Z,12.05
2023-04-18T05:32:43.795Z,11.60
2023-04-18T05:35:11.874Z,11.75
2023-04-18T05:37:39.868Z,12.20
2023-04-18T05:40:09.502Z,12.20
2023-04-18T05:42:37.521Z,11.75
2023-04-18T05:45:07.934Z,12.82
2023-04-18T05:47:36.046Z,13.15
2023-04-18T05:50:04.314Z,13.07
2023-04-18T05:52:32.908Z,12.25
2023-04-18T05:55:00.894Z,13.00
2023-04-18T05:57:28.899Z,12.27
2023-04-18T05:59:56.846Z,13.73
2023-04-18T06:02:26.533Z,13.85
2023-04-18T06:04:54.811Z,12.52
2023-04-18T06:07:25.085Z,12.93
2023-04-18T06:09:53.969Z,13.45
2023-04-18T06:12:22.008Z,14.05
2023-04-18T06:14:51.261Z,13.35
2023-04-18T06:17:19.280Z,12.38
2023-04-18T06:19:48.533Z,12.63
2023-04-18T06:22:16.487Z,13.10
2023-04-18T06:24:44.855Z,13.00
2023-04-18T06:27:27.909Z,13.15
2023-04-18T06:29:58.370Z,12.63
2023-04-18T06:32:26.518Z,12.60
2023-04-18T06:34:56.028Z,13.13
2023-04-18T06:37:24.445Z,13.93
2023-04-18T06:39:52.401Z,13.27
2023-04-18T06:42:22.206Z,13.70
2023-04-18T06:44:50.607Z,12.98
2023-04-18T06:47:18.760Z,12.98
2023-04-18T06:49:46.859Z,13.50
2023-04-18T06:52:16.212Z,13.30
2023-04-18T06:54:44.225Z,13.30
2023-04-18T06:57:12.335Z,13.57
2023-04-18T06:59:41.364Z,13.50
2023-04-18T07:02:09.572Z,12.85
2023-04-18T07:04:37.629Z,13.80
2023-04-18T07:07:05.755Z,12.95
2023-04-18T07:09:35.074Z,13.80
2023-04-18T07:12:03.068Z,13.50
2023-04-18T07:14:32.865Z,12.52
2023-04-18T07:17:02.335Z,13.25
2023-04-18T07:19:30.351Z,13.02
2023-04-18T07:21:58.344Z,12.32
2023-04-18T07:24:26.322Z,12.82
2023-04-18T07:26:55.813Z,11.95
2023-04-18T07:29:23.847Z,12.75
2023-04-18T07:31:52.042Z,12.68
2023-04-18T07:34:20.012Z,12.15
2023-04-18T07:36:47.989Z,11.93
2023-04-18T07:39:16.141Z,12.65
2023-04-18T07:41:44.114Z,11.82
2023-04-18T07:44:13.691Z,12.60
2023-04-18T07:46:42.153Z,12.35
2023-04-18T07:49:10.219Z,12.45
2023-04-18T07:51:38.206Z,12.07
2023-04-18T07:54:06.290Z,11.90
2023-04-18T07:56:34.666Z,11.57
2023-04-18T07:59:02.723Z,12.35
2023-04-18T08:01:32.137Z,11.95
2023-04-18T08:04:02.227Z,11.88
2023-04-18T08:06:30.629Z,11.15
2023-04-18T08:09:03.102Z,11.60
2023-04-18T08:11:31.143Z,12.40
2023-04-18T08:13:59.107Z,11.45
2023-04-18T08:16:27.396Z,11.02
2023-04-18T08:18:56.820Z,10.65
2023-04-18T08:21:24.832Z,10.73
2023-04-18T08:23:52.782Z,10.70
2023-04-18T08:26:21.841Z,10.30
2023-04-18T08:28:49.810Z,9.98
2023-04-18T08:31:17.863Z,10.07
2023-04-18T08:33:45.909Z,9.73
2023-04-18T08:36:15.210Z,10.23
2023-04-18T08:38:43.166Z,10.18
2023-04-18T08:41:11.114Z,9.82
2023-04-18T08:43:39.354Z,9.95
2023-04-18T08:46:07.995Z,10.30
2023-04-18T08:48:36.701Z,9.90
2023-04-18T08:51:05.395Z,9.88
2023-04-18T08:53:35.208Z,10.43
2023-04-18T08:56:05.394Z,9.27
2023-04-18T08:58:34.849Z,9.52
2023-04-18T09:01:03.048Z,9.50
2023-04-18T09:03:39.868Z,9.13
2023-04-18T09:06:09.454Z,10.27
2023-04-18T09:08:39.083Z,9.63
2023-04-18T09:11:24.269Z,8.77
2023-04-18T09:13:52.249Z,8.98
2023-04-18T09:16:22.986Z,9.25
2023-04-18T09:19:10.363Z,8.88
2023-04-18T09:21:40.903Z,8.50
2023-04-18T09:24:21.168Z,9.27
2023-04-18T09:26:50.759Z,9.43
2023-04-18T09:29:22.497Z,8.57
2023-04-18T09:31:59.770Z,8.55
2023-04-18T09:34:28.649Z,8.73
2023-04-18T09:37:10.554Z,8.48
2023-04-18T09:39:41.096Z,8.20
2023-04-18T09:42:10.501Z,8.45
2023-04-18T09:44:38.864Z,8.73
2023-04-18T09:47:07.776Z,9.25
2023-04-18T09:49:35.790Z,9.55
2023-04-18T09:52:07.431Z,8.48
2023-04-18T09:54:38.895Z,8.85
2023-04-18T09:57:11.948Z,8.43
2023-04-18T09:59:47.631Z,9.13
2023-04-18T10:02:21.242Z,8.93
2023-04-18T10:04:51.737Z,9.07
2023-04-18T10:07:20.085Z,9.05
2023-04-18T10:09:48.728Z,8.48
2023-04-18T10:12:18.952Z,9.00
2023-04-18T10:14:47.314Z,8.55
2023-04-18T10:17:16.062Z,8.20
2023-04-18T10:19:46.208Z,8.60
2023-04-18T10:22:14.272Z,8.45
2023-04-18T10:24:49.724Z,8.38
2023-04-18T10:27:19.937Z,8.52
2023-04-18T10:29:49.374Z,8.80
2023-04-18T10:32:17.964Z,8.48
2023-04-18T10:34:47.620Z,8.70
2023-04-18T10:37:18.823Z,8.57
2023-04-18T10:39:56.867Z,8.88
2023-04-18T10:42:58.289Z,8.85
2023-04-18T10:45:31.014Z,8.48
2023-04-18T10:48:32.800Z,8.52
2023-04-18T10:51:17.133Z,8.18
2023-04-18T10:53:51.250Z,8.48
2023-04-18T10:56:19.314Z,8.60
2023-04-18T10:58:51.586Z,8.20
2023-04-18T11:03:54.380Z,7.55
2023-04-18T11:06:22.690Z,8.43
2023-04-18T11:08:51.201Z,6.95
2023-04-18T11:11:19.185Z,7.40
2023-04-18T11:13:57.888Z,7.00
2023-04-18T11:16:31.798Z,6.72
2023-04-18T11:19:00.142Z,7.80
2023-04-18T11:21:30.415Z,7.30
2023-04-18T11:23:59.279Z,6.80
2023-04-18T11:26:28.965Z,7.53
2023-04-18T11:28:58.680Z,8.18
2023-04-18T11:31:26.685Z,8.15
2023-04-18T11:33:57.780Z,8.60
2023-04-18T11:36:26.270Z,8.02
2023-04-18T11:38:54.238Z,7.20
2023-04-18T11:41:23.033Z,7.07
2023-04-18T11:43:51.044Z,7.53
2023-04-18T11:46:19.041Z,7.82
2023-04-18T11:48:47.752Z,7.85
2023-04-18T11:51:35.614Z,7.97
2023-04-18T11:54:03.898Z,7.53
2023-04-18T11:56:34.622Z,7.07
2023-04-18T12:01:37.108Z,6.13
2023-04-18T12:04:06.738Z,6.20
2023-04-18T12:06:48.190Z,6.53
2023-04-18T12:09:16.640Z,5.78
2023-04-18T12:11:45.426Z,6.43
2023-04-18T12:14:23.013Z,6.07
2023-04-18T12:16:51.049Z,6.00
2023-04-18T12:19:20.452Z,6.60
2023-04-18T12:22:01.642Z,5.40
2023-04-18T12:24:30.009Z,5.38
2023-04-18T12:26:58.497Z,5.28
2023-04-18T12:29:29.155Z,5.15
2023-04-18T12:31:57.266Z,5.65
2023-04-18T12:34:25.393Z,5.93
2023-04-18T12:36:53.775Z,6.22
2023-04-18T12:39:23.080Z,5.68
2023-04-18T12:41:51.125Z,5.63
2023-04-18T12:44:19.151Z,5.60
2023-04-18T12:46:47.164Z,5.25
2023-04-18T12:49:15.169Z,5.47
2023-04-18T12:51:43.572Z,5.40
2023-04-18T12:54:11.754Z,5.35
2023-04-18T12:56:41.206Z,5.30
2023-04-18T12:59:09.148Z,5.40
2023-04-18T13:01:37.201Z,5.57
2023-04-18T13:04:12.558Z,5.97
2023-04-18T13:06:41.580Z,5.70
2023-04-18T13:09:10.428Z,6.05
2023-04-18T13:11:38.450Z,6.15
2023-04-18T13:14:08.031Z,5.75
2023-04-18T13:16:36.155Z,6.25
2023-04-18T13:19:04.177Z,6.07
2023-04-18T13:21:32.190Z,6.88
2023-04-18T13:24:00.935Z,6.30
2023-04-18T13:26:29.010Z,6.82
2023-04-18T13:28:57.004Z,7.35
2023-04-18T13:31:26.809Z,7.18
2023-04-18T13:33:54.856Z,7.95
2023-04-18T13:36:24.004Z,7.68
2023-04-18T13:38:52.643Z,8.55
2023-04-18T13:41:20.588Z,8.15
2023-04-18T13:43:48.533Z,8.40
2023-04-18T13:46:16.521Z,8.75
2023-04-18T13:48:46.114Z,9.02
2023-04-18T13:51:14.083Z,9.30
2023-04-18T13:53:42.086Z,8.55
2023-04-18T13:56:10.452Z,9.27
2023-04-18T13:58:38.437Z,8.50
2023-04-18T14:01:06.859Z,8.95
2023-04-18T14:03:36.890Z,9.15
2023-04-18T14:06:08.000Z,9.60
2023-04-18T14:08:36.014Z,9.18
2023-04-18T14:11:04.126Z,9.93
2023-04-18T14:13:32.352Z,9.82
2023-04-18T14:16:00.909Z,9.10
2023-04-18T14:18:28.973Z,9.38
2023-04-18T14:20:56.892Z,9.68
2023-04-18T14:23:26.272Z,9.55
2023-04-18T14:25:54.231Z,9.85
2023-04-18T14:28:24.844Z,9.35
2023-04-18T14:30:55.237Z,9.57
2023-04-18T14:33:23.218Z,9.52
2023-04-18T14:35:51.494Z,9.52
2023-04-18T14:38:20.030Z,10.13
2023-04-18T14:40:49.601Z,9.63
2023-04-18T14:43:17.617Z,9.20
2023-04-18T14:45:45.593Z,10.35
2023-04-18T14:48:13.632Z,9.60
2023-04-18T14:50:41.647Z,9.82
2023-04-18T14:53:09.612Z,10.30
2023-04-18T14:55:37.580Z,9.75
2023-04-18T14:58:06.924Z,10.18
2023-04-18T15:00:35.055Z,10.18
2023-04-18T15:03:03.672Z,9.75
2023-04-18T15:05:31.765Z,10.00
2023-04-18T15:07:59.724Z,11.10
2023-04-18T15:10:27.688Z,11.05
2023-04-18T15:12:55.706Z,11.10
2023-04-18T15:15:25.202Z,11.13
2023-04-18T15:17:53.264Z,11.35
2023-04-18T15:20:23.275Z,11.30
2023-04-18T15:22:52.055Z,11.23
2023-04-18T15:25:20.224Z,11.93
2023-04-18T15:27:48.230Z,11.98
2023-04-18T15:30:16.324Z,10.90
2023-04-18T15:32:45.722Z,11.73
2023-04-18T15:35:14.048Z,12.15
2023-04-18T15:37:42.062Z,11.65
2023-04-18T15:40:16.029Z,12.00
2023-04-18T15:42:44.435Z,11.98
2023-04-18T15:45:13.255Z,11.60
2023-04-18T15:47:41.823Z,11.55
2023-04-18T15:50:11.689Z,10.70
2023-04-18T15:52:41.395Z,11.70
2023-04-18T15:55:12.318Z,12.25
2023-04-18T15:57:40.708Z,11.23
2023-04-18T16:00:15.639Z,11.45
2023-04-18T16:02:44.601Z,11.80
2023-04-18T16:05:15.464Z,11.75
2023-04-18T16:07:44.023Z,11.20
2023-04-18T16:10:12.877Z,12.00
2023-04-18T16:12:41.182Z,11.73
2023-04-18T16:15:12.333Z,11.20
2023-04-18T16:17:40.321Z,11.37
2023-04-18T16:20:09.473Z,10.75
2023-04-18T16:22:39.024Z,10.52
2023-04-18T16:25:08.112Z,10.65
2023-04-18T16:27:36.113Z,10.60
2023-04-18T16:30:04.389Z,10.30
2023-04-18T16:32:32.366Z,11.13
2023-04-18T16:35:00.416Z,11.57
2023-04-18T16:37:28.534Z,11.18
2023-04-18T16:39:57.815Z,10.38
2023-04-18T16:42:25.905Z,10.75
2023-04-18T16:44:53.897Z,11.30
2023-04-18T16:47:21.941Z,11.10
2023-04-18T16:49:51.304Z,11.30
2023-04-18T16:52:19.268Z,11.10
2023-04-18T16:54:48.547Z,12.13
2023-04-18T16:57:19.029Z,11.65
2023-04-18T16:59:47.317Z,11.23
2023-04-18T17:02:15.357Z,12.13
2023-04-18T17:04:43.517Z,11.38
2023-04-18T17:07:11.490Z,11.52
2023-04-18T17:09:39.409Z,12.00
2023-04-18T17:12:07.639Z,11.88
2023-04-18T17:14:37.168Z,11.63
2023-04-18T17:17:05.436Z,11.90
2023-04-18T17:19:33.364Z,11.32
2023-04-18T17:22:01.926Z,11.77
2023-04-18T17:24:29.960Z,11.48
2023-04-18T17:26:58.210Z,12.15
2023-04-18T17:29:26.658Z,10.80
2023-04-18T17:31:56.333Z,11.20
2023-04-18T17:34:24.326Z,10.93
2023-04-18T17:36:52.351Z,11.57
2023-04-18T17:39:20.346Z,11.73
2023-04-18T17:41:48.318Z,11.57
2023-04-18T17:44:16.319Z,11.20
2023-04-18T17:46:44.282Z,11.57
2023-04-18T17:49:13.793Z,11.45
2023-04-18T17:51:41.874Z,11.52
2023-04-18T17:55:31.110Z,11.13
2023-04-18T17:57:59.049Z,11.27
2023-04-18T18:00:27.081Z,11.07
2023-04-18T18:02:55.280Z,12.40
2023-04-18T18:05:23.563Z,11.75
2023-04-18T18:07:53.158Z,11.10
2023-04-18T18:10:23.276Z,10.88
2023-04-18T18:12:53.034Z,11.35
2023-04-18T18:15:21.335Z,11.93
2023-04-18T18:17:50.419Z,12.23
2023-04-18T18:20:19.069Z,11.60
2023-04-18T18:22:47.327Z,12.13
2023-04-18T18:25:15.397Z,11.95
2023-04-18T18:27:43.463Z,11.82
2023-04-18T18:30:13.092Z,11.05
2023-04-18T18:32:41.074Z,11.95
2023-04-18T18:35:09.946Z,12.35
2023-04-18T18:37:37.907Z,12.07
2023-04-18T18:40:07.335Z,12.38
2023-04-18T18:42:35.371Z,12.45
2023-04-18T18:45:04.056Z,11.93
2023-04-18T18:47:34.294Z,12.80
2023-04-18T18:50:02.508Z,12.45
2023-04-18T18:52:31.020Z,12.45
2023-04-18T18:55:01.033Z,11.80
2023-04-18T18:57:29.153Z,12.55
2023-04-18T18:59:57.096Z,11.82
2023-04-18T19:02:25.399Z,12.32
2023-04-18T19:04:55.087Z,12.10
2023-04-18T19:07:23.029Z,13.25
2023-04-18T19:09:50.990Z,12.45
2023-04-18T19:12:18.972Z,13.70
2023-04-18T19:14:46.969Z,12.75
2023-04-18T19:17:17.608Z,12.32
2023-04-18T19:19:45.606Z,13.50
2023-04-18T19:22:14.962Z,13.63
2023-04-18T19:24:42.982Z,13.13
2023-04-18T19:27:10.962Z,12.95
2023-04-18T19:29:38.959Z,13.23
2023-04-18T19:32:07.409Z,13.63
2023-04-18T19:34:35.455Z,13.70
2023-04-18T19:37:03.747Z,14.07
2023-04-18T19:39:33.135Z,12.98
2023-04-18T19:42:01.907Z,13.85
2023-04-18T19:44:31.156Z,13.30
2023-04-18T19:46:59.190Z,13.68
2023-04-18T19:49:27.256Z,13.80
2023-04-18T19:51:55.246Z,14.73
2023-04-18T19:54:23.289Z,15.38
2023-04-18T19:56:52.775Z,14.45
2023-04-18T19:59:20.785Z,13.68
2023-04-18T20:01:48.790Z,13.73
2023-04-18T20:04:17.188Z,14.05
2023-04-18T20:06:45.328Z,13.85
2023-04-18T20:09:16.856Z,13.63
2023-04-18T20:11:46.506Z,13.95
2023-04-18T20:14:15.878Z,14.07
2023-04-18T20:16:45.711Z,14.90
2023-04-18T20:19:16.134Z,14.35
2023-04-18T20:21:44.218Z,13.45
2023-04-18T20:24:12.181Z,14.60
2023-04-18T20:26:40.176Z,14.50
2023-04-18T20:29:08.418Z,14.48
2023-04-18T20:31:42.072Z,14.45
2023-04-18T20:34:10.998Z,13.48
2023-04-18T20:36:41.441Z,13.70
2023-04-18T20:39:09.888Z,13.05
2023-04-18T20:41:37.983Z,12.50
2023-04-18T20:44:06.764Z,12.68
2023-04-18T20:46:34.901Z,13.70
2023-04-18T20:49:04.325Z,12.93
2023-04-18T20:51:32.521Z,13.18
2023-04-18T20:54:00.489Z,12.80
2023-04-18T20:56:28.484Z,12.98
2023-04-18T20:58:56.518Z,13.18
2023-04-18T21:01:24.885Z,13.20
2023-04-18T21:03:53.092Z,12.50
2023-04-18T21:06:22.955Z,12.32
2023-04-18T21:08:50.908Z,12.25
2023-04-18T21:11:18.887Z,13.25
2023-04-18T21:13:46.903Z,13.07
2023-04-18T21:16:14.992Z,13.25
2023-04-18T21:18:43.047Z,12.27
2023-04-18T21:21:11.748Z,12.65
2023-04-18T21:23:44.858Z,12.55
2023-04-18T21:26:13.414Z,12.38
2023-04-18T21:28:58.364Z,12.55
2023-04-18T21:31:27.075Z,11.80
2023-04-18T21:33:55.671Z,11.75
2023-04-18T21:36:26.392Z,12.18
2023-04-18T21:38:56.756Z,12.05
2023-04-18T21:41:25.410Z,11.32
2023-04-18T21:43:54.471Z,11.98
2023-04-18T21:46:22.561Z,12.23
2023-04-18T21:48:50.556Z,11.63
2023-04-18T21:51:18.750Z,10.63
2023-04-18T21:53:46.873Z,11.38
2023-04-18T21:56:16.697Z,11.13
2023-04-18T21:58:44.655Z,11.18
2023-04-18T22:01:12.649Z,10.60
2023-04-18T22:03:40.906Z,10.55
2023-04-18T22:06:09.014Z,10.60
2023-04-18T22:08:38.020Z,10.70
2023-04-18T22:11:06.352Z,10.27
2023-04-18T22:13:35.672Z,10.95
2023-04-18T22:16:04.320Z,10.52
2023-04-18T22:18:34.307Z,10.63
2023-04-18T22:21:03.422Z,10.07
2023-04-18T22:23:31.946Z,11.48
2023-04-18T22:26:00.204Z,10.82
2023-04-18T22:28:28.866Z,10.35
2023-04-18T22:30:58.253Z,10.70
2023-04-18T22:33:26.589Z,10.93
2023-04-18T22:35:55.553Z,10.93
2023-04-18T22:38:23.583Z,10.45
2023-04-18T22:40:51.531Z,11.18
2023-04-18T22:43:22.849Z,10.65
2023-04-18T22:45:51.585Z,8.80
2023-04-18T22:48:21.053Z,10.38
2023-04-18T22:50:49.741Z,10.68
2023-04-18T22:53:18.305Z,10.07
2023-04-18T22:55:46.851Z,10.32
2023-04-18T22:58:14.910Z,10.13
2023-04-18T23:00:43.133Z,9.38
2023-04-18T23:03:11.274Z,11.02
2023-04-18T23:05:41.726Z,10.50
2023-04-18T23:08:11.813Z,10.27
2023-04-18T23:10:39.996Z,10.68
2023-04-18T23:13:07.999Z,10.23
2023-04-18T23:15:36.038Z,9.70
2023-04-18T23:18:04.157Z,10.93
2023-04-18T23:20:32.309Z,10.15
2023-04-18T23:23:01.969Z,10.27
2023-04-18T23:25:29.969Z,9.43
2023-04-18T23:27:57.927Z,9.10
2023-04-18T23:30:26.755Z,10.45
2023-04-18T23:32:55.024Z,9.93
2023-04-18T23:35:23.157Z,10.23
2023-04-18T23:37:51.203Z,10.32
2023-04-18T23:40:20.960Z,10.50
2023-04-18T23:42:48.924Z,10.00
2023-04-18T23:45:17.111Z,10.75
2023-04-18T23:47:45.168Z,10.15
2023-04-18T23:50:13.683Z,9.82
2023-04-18T23:52:41.708Z,10.18
2023-04-18T23:55:10.446Z,10.00
2023-04-18T23:57:39.821Z,10.70
